Historyczne dane pomiarowe

Dodano dane terminowe – wersja testowa.

Dane z okresu 1951-2019

Wersja bazy: 1.34 [2019-03-16, lista zmian], aktualizacja planowana na 2019-04-15

Dane meteo z obszaru Polski uzyskane na podstawie danych udostępnionych przez Instytut Meteorologii i Gospodarki Wodnej – Państwowy Instytut Badawczy.

 

Wybierz Datę:    

       

TemperaturaWilgotnośćWiatrCiśnienieOpadyŚniegCzas trwania zjawisk
 Stacja t tx tn tng RH VA  wxwx mslp ppp RRR   cm mm wxwxwxwxwxwxwx
2019-06-19 20.9 27.6 10.2 7.8 67.3- 1.3 1.7---- 0.0------------
2019-06-18 18.3 24.2 8.2 5.8 65.3- 1.3 0.7---- 0.0------------
2019-06-17 17.3 21.7 13.2 13.2 77.8- 4.3 4.0---- 0.0------------
2019-06-16 18.9 24.2 15.3 15.3 89.3- 6.7 3.0---- 0.2------------
2019-06-15 19.3 27.1 10.2 8.7 81.5- 3.7 2.0---- 28.7------------
2019-06-14 19.4 23.7 14.8 14.2 82.3- 5.7 1.7---- 0.0------------
2019-06-13 22.9 31.6 16.3 15.9 66.8- 5.3 2.3---- 34.4------------
2019-06-12 27.0 33.6 19.9 18.6 53.5- 1.3 3.0---- 0.5------------
2019-06-11 26.1 33.6 18.4 14.7 60.8- 2.0 2.7---- 0.0------------
2019-06-10 20.4 28.1 9.2 5.8 52.0- 3.3 1.3---- 0.0------------
2019-06-09 17.6 23.7 8.7 4.4 59.5- 0.7 1.7---- 0.0------------
2019-06-08 19.9 28.6 12.2 9.7 73.0- 2.0 2.0---- 0.8------------
2019-06-07 22.7 28.1 15.8 12.7 61.3- 2.3 2.0---- 0.0------------
2019-06-06 21.8 28.1 13.2 9.9 64.5- 2.7 3.0---- 0.0------------
2019-06-05 22.3 29.1 12.7 9.7 57.5- 1.3 1.7---- 0.0------------
2019-06-04 22.2 28.6 13.8 8.6 57.5- 0.7 2.0---- 0.0------------
2019-06-03 18.8 26.6 5.8 2.9 54.5- 0.3 2.3---- 0.0------------
2019-06-02 16.3 20.2 10.7 9.1 69.3- 4.3 3.0---- 0.0------------
2019-06-01 16.5 21.7 9.7 5.8 75.8- 5.0 1.7---- 0.0------------
2019-05-31 14.2 21.7 4.8 0.5 67.3- 6.0 3.0---- 10.2------------
2019-05-30 11.6 17.7 1.4 -1.5 59.5- 0.3 1.0---- 0.0------------
2019-05-29 10.7 14.7 8.2 8.0 75.8- 3.3 4.7---- 1.0------------
2019-05-28 14.0 18.7 10.2 9.7 94.8- 8.0 3.3---- 13.7------------
2019-05-27 17.1 22.2 13.7 12.7 62.3- 8.0 3.0---- 1.4------------
2019-05-26 12.0 16.2 4.8 2.4 71.3- 8.0 4.0---- 0.0------------
2019-05-25 12.9 16.7 8.2 4.4 71.8- 4.0 3.3---- 0.0------------
2019-05-24 14.5 20.2 9.2 9.2 70.8- 4.3 1.3---- 0.0------------
2019-05-23 14.1 21.3 10.2 8.3 92.8- 8.0 3.3---- 0.0------------
2019-05-22 18.0 22.7 11.2 7.8 64.8- 2.7 0.3---- 0.0------------
2019-05-21 19.1 24.2 12.7 10.7 74.0- 3.7 1.7---- 0.0------------
2019-05-20 18.5 26.1 10.7 7.3 76.0- 4.3 2.0---- 2.3------------
2019-05-19 17.9 22.2 11.7 9.2 80.8- 7.0 0.0---- 0.3------------
2019-05-18 16.4 22.7 9.2 6.3 90.5- 7.7 1.7---- 5.7------------
2019-05-17 15.4 18.2 11.7 11.7 94.0- 6.7 2.0---- 1.6------------
2019-05-16 13.5 15.2 9.7 8.3 77.5- 6.3 4.0---- 7.6------------
2019-05-15 9.8 12.7 5.8 4.9 85.3- 8.0 4.0---- 5.6------------
2019-05-14 7.2 10.2 4.3 3.9 81.8- 8.0 5.0---- 0.5------------
2019-05-13 7.6 10.2 4.8 4.4 85.3- 8.0 3.0---- 3.1------------
2019-05-12 7.7 13.7 1.4 -2.5 81.5- 7.7 2.3---- 7.3------------
2019-05-11 10.8 14.2 7.2 4.4 80.8- 6.0 3.3---- 0.0------------
2019-05-10 12.4 16.2 8.2 8.2 76.0- 7.3 1.3---- 0.0------------
2019-05-09 12.9 17.2 6.7 6.1 41.5- 5.0 3.7---- 0.0------------
2019-05-08 7.5 13.7 -2.6 -6.0 49.5- 2.3 2.7---- 0.0------------
2019-05-07 6.4 12.2 -0.6 -4.0 64.8- 1.7 3.7---- 0.0------------
2019-05-06 5.9 13.2 -3.6 -5.5 67.0- 3.3 1.7---- 0.0------------
2019-05-05 5.1 10.2 0.9 0.9 77.5- 4.7 2.3---- 0.1------------
2019-05-04 6.9 11.7 2.8 1.0 66.8- 6.7 4.0---- 12.5------------
2019-05-03 7.4 10.7 3.3 3.3 58.8- 5.3 4.0---- 0.6------------
2019-05-02 9.2 12.7 6.3 6.3 82.5- 8.0 3.3---- 0.8------------
2019-05-01 10.6 17.2 3.4 0.0 53.5- 1.3 1.3---- 0.2------------
2019-04-30 10.5 19.2 0.9 -1.5 48.8- 1.0 2.0---- 0.0------------
2019-04-29 12.5 20.2 4.3 2.9 54.8- 0.0 2.7---- 0.0------------
2019-04-28 10.3 13.2 7.7 7.8 88.0- 8.0 2.3---- 3.6------------
2019-04-27 15.1 25.1 6.7 2.9 69.0- 4.3 3.0---- 0.0------------
2019-04-26 18.2 27.1 6.3 2.4 54.5- 2.0 1.7---- 0.0------------
2019-04-25 17.8 24.2 10.7 8.3 52.3- 2.3 2.7---- 0.0------------
2019-04-24 15.0 20.2 7.7 7.1 36.0- 4.0 4.3---- 1.1------------
2019-04-23 12.0 19.7 -0.1 -2.5 31.8- 0.0 3.7---- 0.0------------
2019-04-22 9.5 17.7 -1.6 -4.0 62.3- 1.7 1.7---- 0.0------------
2019-04-21 7.7 14.7 2.3 -1.0 72.3- 5.3 1.7---- 0.0------------
228.2 ms

 

Źródłem pochodzenia danych jest Instytut Meteorologii i Gospodarki Wodnej – Państwowy Instytut Badawczy. Dane Instytutu Meteorologii i Gospodarki Wodnej – Państwowego Instytutu Badawczego zostały przetworzone.

Dane źródłowe można odnaleźć na stronie https://dane.imgw.pl